createdAt,value
2024-03-07T00:00:18.320Z,102653.94
2024-03-07T00:02:50.029Z,102652.25
2024-03-07T00:05:18.102Z,102652.66
2024-03-07T00:07:44.869Z,102653.31
2024-03-07T00:10:12.279Z,102648.94
2024-03-07T00:12:41.794Z,102652.16
2024-03-07T00:15:10.005Z,102651.44
2024-03-07T00:17:36.601Z,102643.94
2024-03-07T00:20:05.509Z,102651.25
2024-03-07T00:22:32.466Z,102650.09
2024-03-07T00:24:58.964Z,102645.00
2024-03-07T00:27:27.233Z,102650.28
2024-03-07T00:29:54.415Z,102645.47
2024-03-07T00:32:21.455Z,102652.41
2024-03-07T00:34:48.609Z,102646.63
2024-03-07T00:37:16.116Z,102650.41
2024-03-07T00:39:42.992Z,102650.59
2024-03-07T00:42:10.274Z,102640.97
2024-03-07T00:44:37.041Z,102647.16
2024-03-07T00:47:04.102Z,102647.03
2024-03-07T00:49:31.401Z,102648.00
2024-03-07T00:52:00.249Z,102654.69
2024-03-07T00:54:27.009Z,102652.16
2024-03-07T00:56:54.178Z,102647.53
2024-03-07T00:59:21.048Z,102652.41
2024-03-07T01:01:47.672Z,102654.09
2024-03-07T01:04:14.172Z,102644.28
2024-03-07T01:06:42.152Z,102641.56
2024-03-07T01:09:15.340Z,102648.88
2024-03-07T01:11:44.697Z,102637.28
2024-03-07T01:14:12.510Z,102643.13
2024-03-07T01:16:39.028Z,102632.78
2024-03-07T01:19:09.614Z,102634.94
2024-03-07T01:21:38.714Z,102637.72
2024-03-07T01:24:06.551Z,102636.69
2024-03-07T01:26:34.765Z,102632.81
2024-03-07T01:29:01.472Z,102629.28
2024-03-07T01:31:28.048Z,102638.03
2024-03-07T01:33:55.740Z,102639.34
2024-03-07T01:36:22.744Z,102636.03
2024-03-07T01:38:49.366Z,102629.50
2024-03-07T01:41:15.945Z,102629.50
2024-03-07T01:43:45.440Z,102630.06
2024-03-07T01:46:12.321Z,102632.75
2024-03-07T01:48:39.569Z,102636.25
2024-03-07T01:51:06.673Z,102626.16
2024-03-07T01:53:34.717Z,102627.00
2024-03-07T01:56:03.543Z,102616.72
2024-03-07T01:58:31.883Z,102625.56
2024-03-07T02:00:59.396Z,102621.66
2024-03-07T02:03:26.189Z,102628.97
2024-03-07T02:05:52.863Z,102616.84
2024-03-07T02:08:20.803Z,102620.25
2024-03-07T02:10:47.649Z,102619.13
2024-03-07T02:13:14.213Z,102623.88
2024-03-07T02:15:40.653Z,102622.19
2024-03-07T02:18:07.923Z,102616.00
2024-03-07T02:20:34.549Z,102612.94
2024-03-07T02:23:01.070Z,102615.63
2024-03-07T02:25:28.515Z,102609.69
2024-03-07T02:27:54.995Z,102613.47
2024-03-07T02:30:21.410Z,102614.41
2024-03-07T02:32:53.137Z,102614.41
2024-03-07T02:35:20.161Z,102618.81
2024-03-07T02:37:47.254Z,102613.47
2024-03-07T02:40:14.993Z,102616.25
2024-03-07T02:42:41.462Z,102616.38
2024-03-07T02:45:08.370Z,102608.13
2024-03-07T02:47:35.003Z,102614.41
2024-03-07T02:50:01.578Z,102603.88
2024-03-07T02:52:28.142Z,102608.63
2024-03-07T02:54:54.699Z,102605.50
2024-03-07T02:57:21.582Z,102601.63
2024-03-07T02:59:48.166Z,102597.06
2024-03-07T03:02:17.882Z,102598.59
2024-03-07T03:04:44.384Z,102591.72
2024-03-07T03:07:11.184Z,102594.63
2024-03-07T03:09:40.955Z,102595.31
2024-03-07T03:12:07.776Z,102598.97
2024-03-07T03:14:34.339Z,102584.78
2024-03-07T03:17:01.162Z,102581.88
2024-03-07T03:19:27.654Z,102582.84
2024-03-07T03:21:54.100Z,102586.25
2024-03-07T03:24:21.330Z,102577.41
2024-03-07T03:26:47.855Z,102574.72
2024-03-07T03:29:15.147Z,102571.31
2024-03-07T03:31:41.600Z,102568.78
2024-03-07T03:34:10.807Z,102566.38
2024-03-07T03:36:37.261Z,102568.84
2024-03-07T03:39:03.786Z,102573.34
2024-03-07T03:41:31.292Z,102568.00
2024-03-07T03:43:57.814Z,102562.41
2024-03-07T03:46:24.668Z,102563.50
2024-03-07T03:48:51.972Z,102565.34
2024-03-07T03:51:18.481Z,102571.66
2024-03-07T03:53:45.269Z,102565.47
2024-03-07T03:56:13.349Z,102574.41
2024-03-07T03:58:42.839Z,102577.94
2024-03-07T04:01:14.060Z,102568.50
2024-03-07T04:03:40.727Z,102571.03
2024-03-07T04:06:08.161Z,102566.94
2024-03-07T04:08:37.752Z,102571.28
2024-03-07T04:11:05.701Z,102560.03
2024-03-07T04:13:32.839Z,102563.56
2024-03-07T04:16:00.211Z,102562.69
2024-03-07T04:18:27.674Z,102563.69
2024-03-07T04:20:55.386Z,102560.28
2024-03-07T04:23:22.060Z,102558.84
2024-03-07T04:25:48.566Z,102558.84
2024-03-07T04:28:15.042Z,102556.91
2024-03-07T04:30:41.525Z,102549.00
2024-03-07T04:33:08.179Z,102560.03
2024-03-07T04:35:34.916Z,102563.69
2024-03-07T04:38:01.376Z,102556.97
2024-03-07T04:40:27.788Z,102555.66
2024-03-07T04:42:54.285Z,102558.75
2024-03-07T04:45:22.295Z,102555.38
2024-03-07T04:47:49.730Z,102559.75
2024-03-07T04:50:19.429Z,102556.09
2024-03-07T04:52:47.528Z,102551.75
2024-03-07T04:55:14.499Z,102554.53
2024-03-07T04:57:42.398Z,102555.75
2024-03-07T05:00:18.236Z,102560.50
2024-03-07T05:02:47.677Z,102551.78
2024-03-07T05:05:15.193Z,102555.88
2024-03-07T05:07:42.591Z,102561.22
2024-03-07T05:10:09.920Z,102552.00
2024-03-07T05:12:37.766Z,102550.31
2024-03-07T05:15:06.060Z,102552.22
2024-03-07T05:17:35.646Z,102552.72
2024-03-07T05:20:02.579Z,102550.63
2024-03-07T05:22:31.356Z,102554.13
2024-03-07T05:24:59.617Z,102558.38
2024-03-07T05:27:26.130Z,102557.97
2024-03-07T05:29:52.681Z,102558.59
2024-03-07T05:32:24.142Z,102565.75
2024-03-07T05:34:51.027Z,102564.16
2024-03-07T05:37:17.573Z,102561.25
2024-03-07T05:39:44.037Z,102555.78
2024-03-07T05:42:14.961Z,102559.69
2024-03-07T05:44:47.483Z,102554.94
2024-03-07T05:47:18.037Z,102561.84
2024-03-07T05:49:44.898Z,102558.19
2024-03-07T05:52:11.379Z,102563.41
2024-03-07T05:54:37.899Z,102557.47
2024-03-07T05:57:06.790Z,102558.19
2024-03-07T05:59:33.770Z,102554.69
2024-03-07T06:02:00.639Z,102556.63
2024-03-07T06:04:27.191Z,102564.78
2024-03-07T06:06:53.828Z,102568.41
2024-03-07T06:09:23.440Z,102565.13
2024-03-07T06:11:51.000Z,102568.47
2024-03-07T06:14:18.331Z,102564.59
2024-03-07T06:16:45.034Z,102569.34
2024-03-07T06:19:12.451Z,102566.53
2024-03-07T06:21:40.908Z,102561.47
2024-03-07T06:24:08.658Z,102566.94
2024-03-07T06:26:45.934Z,102570.31
2024-03-07T06:29:13.828Z,102572.41
2024-03-07T06:31:41.660Z,102566.22
2024-03-07T06:34:09.393Z,102574.09
2024-03-07T06:36:36.623Z,102570.91
2024-03-07T06:39:06.890Z,102572.59
2024-03-07T06:41:34.323Z,102572.50
2024-03-07T06:44:01.538Z,102571.38
2024-03-07T06:46:28.202Z,102572.09
2024-03-07T06:48:55.089Z,102574.50
2024-03-07T06:51:21.711Z,102573.41
2024-03-07T06:53:48.313Z,102563.31
2024-03-07T06:56:15.856Z,102565.63
2024-03-07T06:58:43.360Z,102569.56
2024-03-07T07:01:13.325Z,102569.31
2024-03-07T07:03:40.238Z,102573.44
2024-03-07T07:06:07.176Z,102561.78
2024-03-07T07:08:34.246Z,102562.09
2024-03-07T07:11:00.825Z,102556.34
2024-03-07T07:13:27.393Z,102564.97
2024-03-07T07:15:54.648Z,102566.25
2024-03-07T07:18:22.738Z,102565.72
2024-03-07T07:20:50.342Z,102561.56
2024-03-07T07:23:16.890Z,102559.47
2024-03-07T07:25:43.363Z,102562.31
2024-03-07T07:28:11.004Z,102559.91
2024-03-07T07:30:37.758Z,102556.69
2024-03-07T07:33:04.834Z,102556.91
2024-03-07T07:35:32.329Z,102551.47
2024-03-07T07:37:59.041Z,102549.88
2024-03-07T07:40:28.181Z,102545.91
2024-03-07T07:42:55.280Z,102538.19
2024-03-07T07:45:23.482Z,102541.28
2024-03-07T07:47:54.663Z,102542.50
2024-03-07T07:50:23.283Z,102539.69
2024-03-07T07:52:57.702Z,102542.78
2024-03-07T07:55:26.631Z,102546.66
2024-03-07T07:58:05.097Z,102543.13
2024-03-07T08:00:32.386Z,102544.47
2024-03-07T08:03:02.237Z,102538.75
2024-03-07T08:05:34.249Z,102548.34
2024-03-07T08:08:07.603Z,102544.78
2024-03-07T08:10:36.212Z,102542.63
2024-03-07T08:13:04.130Z,102545.84
2024-03-07T08:15:31.880Z,102553.56
2024-03-07T08:17:59.554Z,102551.66
2024-03-07T08:20:28.022Z,102556.09
2024-03-07T08:22:56.454Z,102550.47
2024-03-07T08:25:28.210Z,102556.97
2024-03-07T08:27:57.345Z,102560.88
2024-03-07T08:30:24.278Z,102558.03
2024-03-07T08:32:53.360Z,102561.03
2024-03-07T08:35:20.512Z,102544.84
2024-03-07T08:37:54.244Z,102550.09
2024-03-07T08:40:28.551Z,102550.75
2024-03-07T08:42:56.844Z,102543.44
2024-03-07T08:45:24.139Z,102547.28
2024-03-07T08:47:52.509Z,102553.59
2024-03-07T08:50:19.704Z,102542.56
2024-03-07T08:52:47.265Z,102547.13
2024-03-07T08:55:15.505Z,102539.06
2024-03-07T08:57:43.149Z,102540.38
2024-03-07T09:00:12.260Z,102525.94
2024-03-07T09:02:39.714Z,102529.38
2024-03-07T09:05:06.977Z,102528.41
2024-03-07T09:07:33.840Z,102527.78
2024-03-07T09:10:00.367Z,102526.09
2024-03-07T09:12:27.384Z,102523.09
2024-03-07T09:14:54.488Z,102528.38
2024-03-07T09:17:21.708Z,102521.53
2024-03-07T09:19:48.211Z,102526.56
2024-03-07T09:22:14.673Z,102519.19
2024-03-07T09:24:41.183Z,102522.22
2024-03-07T09:27:07.839Z,102511.47
2024-03-07T09:29:34.399Z,102512.28
2024-03-07T09:32:00.862Z,102513.78
2024-03-07T09:34:27.441Z,102522.22
2024-03-07T09:36:53.925Z,102516.84
2024-03-07T09:39:20.475Z,102508.41
2024-03-07T09:41:47.019Z,102512.44
2024-03-07T09:44:18.697Z,102517.84
2024-03-07T09:46:47.448Z,102507.59
2024-03-07T09:49:15.016Z,102510.81
2024-03-07T09:51:41.534Z,102502.03
2024-03-07T09:54:09.218Z,102503.41
2024-03-07T09:56:39.056Z,102499.34
2024-03-07T09:59:09.099Z,102503.03
2024-03-07T10:01:37.337Z,102500.00
2024-03-07T10:04:12.726Z,102494.63
2024-03-07T10:06:40.620Z,102498.66
2024-03-07T10:09:08.566Z,102499.28
2024-03-07T10:11:35.915Z,102493.25
2024-03-07T10:14:04.176Z,102492.41
2024-03-07T10:16:30.649Z,102492.72
2024-03-07T10:18:57.192Z,102496.94
2024-03-07T10:21:25.178Z,102487.91
2024-03-07T10:23:54.303Z,102484.78
2024-03-07T10:26:22.398Z,102468.59
2024-03-07T10:28:49.249Z,102477.44
2024-03-07T10:31:29.555Z,102472.06
2024-03-07T10:34:00.489Z,102474.00
2024-03-07T10:36:26.950Z,102476.25
2024-03-07T10:38:56.436Z,102476.19
2024-03-07T10:41:28.732Z,102464.63
2024-03-07T10:43:59.236Z,102455.97
2024-03-07T10:46:27.644Z,102468.03
2024-03-07T10:48:57.765Z,102470.88
2024-03-07T10:51:32.268Z,102465.94
2024-03-07T10:54:23.280Z,102464.56
2024-03-07T10:57:09.733Z,102462.13
2024-03-07T10:59:43.040Z,102459.94
2024-03-07T11:02:28.440Z,102457.91
2024-03-07T11:04:57.067Z,102449.53
2024-03-07T11:07:24.734Z,102462.59
2024-03-07T11:09:53.322Z,102451.16
2024-03-07T11:12:25.375Z,102449.19
2024-03-07T11:14:53.410Z,102447.66
2024-03-07T11:17:23.230Z,102437.13
2024-03-07T11:19:50.864Z,102432.34
2024-03-07T11:22:30.880Z,102431.84
2024-03-07T11:25:02.716Z,102433.59
2024-03-07T11:27:29.273Z,102435.09
2024-03-07T11:29:57.571Z,102441.03
2024-03-07T11:32:25.040Z,102432.94
2024-03-07T11:34:54.940Z,102428.50
2024-03-07T11:37:42.138Z,102425.19
2024-03-07T11:40:09.579Z,102424.66
2024-03-07T11:42:37.043Z,102420.94
2024-03-07T11:45:07.563Z,102423.31
2024-03-07T11:47:40.601Z,102421.88
2024-03-07T11:50:12.527Z,102412.78
2024-03-07T11:52:45.150Z,102424.69
2024-03-07T11:55:12.097Z,102416.56
2024-03-07T11:57:39.746Z,102412.72
2024-03-07T12:00:12.483Z,102402.75
2024-03-07T12:02:42.168Z,102401.34
2024-03-07T12:05:09.163Z,102398.41
2024-03-07T12:07:36.025Z,102393.19
2024-03-07T12:10:06.800Z,102389.06
2024-03-07T12:12:34.199Z,102389.41
2024-03-07T12:15:03.147Z,102381.91
2024-03-07T12:17:31.361Z,102385.66
2024-03-07T12:20:02.682Z,102375.78
2024-03-07T12:22:31.680Z,102374.91
2024-03-07T12:25:09.351Z,102365.25
2024-03-07T12:27:35.876Z,102363.88
2024-03-07T12:30:17.359Z,102351.03
2024-03-07T12:32:50.848Z,102347.94
2024-03-07T12:35:17.807Z,102336.38
2024-03-07T12:37:44.445Z,102328.47
2024-03-07T12:40:20.531Z,102327.53
2024-03-07T12:42:56.100Z,102318.38
2024-03-07T12:45:22.786Z,102318.78
2024-03-07T12:47:53.890Z,102317.25
2024-03-07T12:50:24.435Z,102308.41
2024-03-07T12:52:51.834Z,102311.78
2024-03-07T12:55:24.658Z,102312.16
2024-03-07T12:57:51.319Z,102307.47
2024-03-07T13:00:21.840Z,102308.31
2024-03-07T13:02:49.390Z,102313.44
2024-03-07T13:05:22.295Z,102303.28
2024-03-07T13:07:49.735Z,102302.19
2024-03-07T13:10:17.269Z,102295.56
2024-03-07T13:12:46.464Z,102290.06
2024-03-07T13:15:13.685Z,102282.69
2024-03-07T13:17:41.211Z,102292.97
2024-03-07T13:20:12.904Z,102287.91
2024-03-07T13:22:43.951Z,102288.41
2024-03-07T13:25:16.986Z,102279.72
2024-03-07T13:28:14.432Z,102264.16
2024-03-07T13:30:49.535Z,102272.00
2024-03-07T13:33:16.582Z,102267.50
2024-03-07T13:35:43.231Z,102268.44
2024-03-07T13:38:10.676Z,102269.66
2024-03-07T13:40:40.329Z,102267.97
2024-03-07T13:43:08.069Z,102269.66
2024-03-07T13:45:40.098Z,102272.38
2024-03-07T13:48:07.850Z,102271.81
2024-03-07T13:50:47.731Z,102273.69
2024-03-07T13:53:22.468Z,102266.22
2024-03-07T13:55:54.680Z,102266.22
2024-03-07T13:58:47.094Z,102261.56
2024-03-07T14:01:37.527Z,102252.69
2024-03-07T14:04:41.754Z,102269.66
2024-03-07T14:07:30.950Z,102254.94
2024-03-07T14:10:25.888Z,102260.28
2024-03-07T14:13:15.100Z,102251.69
2024-03-07T14:16:21.676Z,102248.41
2024-03-07T14:19:22.352Z,102251.53
2024-03-07T14:22:22.730Z,102242.66
2024-03-07T14:25:19.549Z,102239.31
2024-03-07T14:28:20.266Z,102233.50
2024-03-07T14:30:59.826Z,102235.09
2024-03-07T14:33:48.565Z,102231.47
2024-03-07T14:36:17.028Z,102224.38
2024-03-07T14:38:59.024Z,102237.34
2024-03-07T14:41:47.996Z,102229.22
2024-03-07T14:44:19.261Z,102233.31
2024-03-07T14:46:48.388Z,102239.84
2024-03-07T14:49:17.529Z,102237.28
2024-03-07T14:51:51.819Z,102226.25
2024-03-07T14:54:26.232Z,102235.56
2024-03-07T14:56:53.660Z,102239.22
2024-03-07T14:59:22.064Z,102229.50
2024-03-07T15:01:48.993Z,102231.88
2024-03-07T15:04:16.268Z,102225.06
2024-03-07T15:06:43.723Z,102222.81
2024-03-07T15:09:10.784Z,102219.91
2024-03-07T15:11:41.537Z,102218.78
2024-03-07T15:14:11.898Z,102223.34
2024-03-07T15:16:39.973Z,102212.69
2024-03-07T15:19:13.566Z,102219.75
2024-03-07T15:21:40.772Z,102207.16
2024-03-07T15:24:07.600Z,102206.19
2024-03-07T15:26:34.995Z,102211.94
2024-03-07T15:29:01.961Z,102199.16
2024-03-07T15:31:28.899Z,102192.94
2024-03-07T15:33:55.797Z,102204.75
2024-03-07T15:36:22.976Z,102195.84
2024-03-07T15:38:49.921Z,102199.25
2024-03-07T15:41:16.512Z,102183.94
2024-03-07T15:43:46.186Z,102186.69
2024-03-07T15:46:13.848Z,102174.25
2024-03-07T15:48:41.485Z,102189.94
2024-03-07T15:51:12.947Z,102185.72
2024-03-07T15:53:41.729Z,102181.53
2024-03-07T15:56:08.580Z,102167.22
2024-03-07T15:58:35.384Z,102175.63
2024-03-07T16:01:03.099Z,102173.31
2024-03-07T16:03:29.779Z,102171.13
2024-03-07T16:05:57.886Z,102159.88
2024-03-07T16:08:24.989Z,102159.53
2024-03-07T16:10:52.363Z,102157.88
2024-03-07T16:13:18.899Z,102160.19
2024-03-07T16:15:46.436Z,102161.56
2024-03-07T16:18:15.466Z,102151.94
2024-03-07T16:20:42.630Z,102155.13
2024-03-07T16:23:10.017Z,102146.03
2024-03-07T16:25:40.509Z,102144.19
2024-03-07T16:28:08.756Z,102141.00
2024-03-07T16:30:36.712Z,102141.00
2024-03-07T16:33:04.282Z,102130.94
2024-03-07T16:35:34.746Z,102134.13
2024-03-07T16:38:02.107Z,102132.81
2024-03-07T16:40:30.067Z,102130.66
2024-03-07T16:43:01.759Z,102127.66
2024-03-07T16:45:31.358Z,102127.66
2024-03-07T16:48:00.914Z,102130.66
2024-03-07T16:50:30.496Z,102120.59
2024-03-07T16:53:08.641Z,102127.69
2024-03-07T16:55:37.905Z,102121.78
2024-03-07T17:00:34.487Z,102120.63
2024-03-07T17:03:06.713Z,102119.97
2024-03-07T17:05:35.500Z,102112.41
2024-03-07T17:08:05.628Z,102107.56
2024-03-07T17:10:36.060Z,102108.56
2024-03-07T17:13:08.144Z,102107.38
2024-03-07T17:15:34.693Z,102115.25
2024-03-07T17:18:01.583Z,102105.69
2024-03-07T17:20:29.821Z,102120.97
2024-03-07T17:22:56.751Z,102104.84
2024-03-07T17:25:25.408Z,102105.50
2024-03-07T17:27:53.225Z,102109.88
2024-03-07T17:30:32.458Z,102110.22
2024-03-07T17:33:00.190Z,102107.22
2024-03-07T17:35:29.992Z,102108.19
2024-03-07T17:37:57.591Z,102111.22
2024-03-07T17:40:27.664Z,102117.94
2024-03-07T17:42:55.479Z,102108.56
2024-03-07T17:45:29.010Z,102106.19
2024-03-07T17:47:59.203Z,102118.09
2024-03-07T17:50:31.492Z,102123.31
2024-03-07T17:53:11.342Z,102118.91
2024-03-07T17:55:42.437Z,102120.25
2024-03-07T17:58:10.148Z,102110.84
2024-03-07T18:00:37.328Z,102112.88
2024-03-07T18:03:06.215Z,102118.38
2024-03-07T18:05:37.826Z,102118.69
2024-03-07T18:08:21.329Z,102126.38
2024-03-07T18:10:56.654Z,102117.66
2024-03-07T18:13:23.285Z,102124.03
2024-03-07T18:15:50.286Z,102121.84
2024-03-07T18:18:17.644Z,102122.66
2024-03-07T18:20:46.246Z,102128.84
2024-03-07T18:23:14.694Z,102118.75
2024-03-07T18:25:41.951Z,102125.13
2024-03-07T18:28:08.780Z,102120.56
2024-03-07T18:30:35.461Z,102120.03
2024-03-07T18:33:06.283Z,102117.34
2024-03-07T18:35:37.503Z,102123.03
2024-03-07T18:38:07.399Z,102119.38
2024-03-07T18:40:34.962Z,102118.97
2024-03-07T18:43:08.977Z,102111.44
2024-03-07T18:45:37.357Z,102116.94
2024-03-07T18:48:09.230Z,102114.75
2024-03-07T18:50:46.361Z,102113.91
2024-03-07T18:53:15.571Z,102116.44
2024-03-07T18:55:47.174Z,102111.91
2024-03-07T18:58:14.052Z,102115.91
2024-03-07T19:00:44.931Z,102107.50
2024-03-07T19:03:15.187Z,102110.34
2024-03-07T19:05:49.849Z,102104.63
2024-03-07T19:08:17.052Z,102118.34
2024-03-07T19:10:45.002Z,102119.19
2024-03-07T19:13:11.929Z,102113.81
2024-03-07T19:15:38.610Z,102112.16
2024-03-07T19:18:10.403Z,102114.44
2024-03-07T19:20:40.304Z,102112.75
2024-03-07T19:23:09.748Z,102111.41
2024-03-07T19:25:36.731Z,102108.03
2024-03-07T19:28:03.412Z,102103.69
2024-03-07T19:30:29.965Z,102112.03
2024-03-07T19:32:58.314Z,102108.66
2024-03-07T19:35:26.417Z,102109.13
2024-03-07T19:37:52.912Z,102106.56
2024-03-07T19:40:22.544Z,102102.91
2024-03-07T19:42:52.736Z,102104.88
2024-03-07T19:45:21.147Z,102102.34
2024-03-07T19:47:48.837Z,102103.19
2024-03-07T19:50:19.204Z,102094.47
2024-03-07T19:52:50.420Z,102098.97
2024-03-07T19:55:19.972Z,102089.94
2024-03-07T19:57:49.270Z,102091.44
2024-03-07T20:00:16.943Z,102101.78
2024-03-07T20:02:44.880Z,102098.09
2024-03-07T20:05:17.314Z,102094.78
2024-03-07T20:07:45.477Z,102097.09
2024-03-07T20:10:12.017Z,102098.84
2024-03-07T20:12:44.705Z,102103.38
2024-03-07T20:15:12.739Z,102093.97
2024-03-07T20:17:44.526Z,102092.63
2024-03-07T20:20:17.743Z,102093.75
2024-03-07T20:22:45.967Z,102094.91
2024-03-07T20:25:13.839Z,102083.50
2024-03-07T20:27:42.009Z,102086.50
2024-03-07T20:30:09.482Z,102087.50
2024-03-07T20:32:38.787Z,102087.81
2024-03-07T20:35:09.096Z,102085.28
2024-03-07T20:37:42.145Z,102079.69
2024-03-07T20:40:10.674Z,102081.31
2024-03-07T20:42:38.861Z,102074.88
2024-03-07T20:45:09.085Z,102080.22
2024-03-07T20:47:37.402Z,102078.84
2024-03-07T20:50:10.541Z,102078.16
2024-03-07T20:52:41.605Z,102064.41
2024-03-07T20:55:09.019Z,102071.72
2024-03-07T20:57:35.613Z,102075.72
2024-03-07T21:00:06.145Z,102061.97
2024-03-07T21:02:33.656Z,102060.44
2024-03-07T21:05:00.872Z,102065.94
2024-03-07T21:07:27.349Z,102058.06
2024-03-07T21:09:53.810Z,102057.50
2024-03-07T21:12:20.507Z,102056.34
2024-03-07T21:14:46.999Z,102049.31
2024-03-07T21:17:14.954Z,102053.16
2024-03-07T21:19:41.418Z,102049.78
2024-03-07T21:22:07.836Z,102051.88
2024-03-07T21:24:34.255Z,102048.22
2024-03-07T21:27:02.420Z,102049.31
2024-03-07T21:29:30.716Z,102040.47
2024-03-07T21:31:58.040Z,102042.59
2024-03-07T21:34:24.506Z,102043.44
2024-03-07T21:36:50.983Z,102048.09
2024-03-07T21:39:17.434Z,102039.09
2024-03-07T21:41:43.878Z,102040.63
2024-03-07T21:44:10.407Z,102036.09
2024-03-07T21:46:41.082Z,102031.59
2024-03-07T21:49:08.507Z,102028.09
2024-03-07T21:51:36.510Z,102038.63
2024-03-07T21:54:03.034Z,102032.16
2024-03-07T21:56:30.089Z,102030.75
2024-03-07T21:58:58.885Z,102026.56
2024-03-07T22:01:39.557Z,102026.03
2024-03-07T22:04:06.533Z,102015.94
2024-03-07T22:06:33.817Z,102019.88
2024-03-07T22:09:01.601Z,102020.72
2024-03-07T22:11:28.547Z,102026.66
2024-03-07T22:13:55.134Z,102024.09
2024-03-07T22:16:21.620Z,102025.09
2024-03-07T22:18:48.295Z,102025.09
2024-03-07T22:21:15.085Z,102020.19
2024-03-07T22:23:41.886Z,102009.50
2024-03-07T22:26:13.130Z,102011.50
2024-03-07T22:28:39.828Z,102011.81
2024-03-07T22:31:10.490Z,102005.91
2024-03-07T22:33:38.198Z,102015.78
2024-03-07T22:36:11.416Z,102011.81
2024-03-07T22:38:37.993Z,102007.44
2024-03-07T22:41:07.711Z,102002.41
2024-03-07T22:43:34.375Z,102007.03
2024-03-07T22:46:00.875Z,102000.31
2024-03-07T22:48:27.465Z,101995.28
2024-03-07T22:50:54.017Z,101991.50
2024-03-07T22:53:20.564Z,101991.81
2024-03-07T22:55:47.951Z,101985.63
2024-03-07T22:58:14.555Z,101991.13
2024-03-07T23:00:45.644Z,101993.13
2024-03-07T23:03:15.584Z,101983.56
2024-03-07T23:05:42.623Z,101987.22
2024-03-07T23:08:09.160Z,101983.03
2024-03-07T23:10:35.708Z,101983.03
2024-03-07T23:13:02.776Z,101982.78
2024-03-07T23:15:30.070Z,101978.56
2024-03-07T23:17:58.758Z,101975.22
2024-03-07T23:20:27.327Z,101978.88
2024-03-07T23:22:57.044Z,101973.84
2024-03-07T23:25:24.583Z,101974.00
2024-03-07T23:27:52.776Z,101971.59
2024-03-07T23:30:19.447Z,101962.34
2024-03-07T23:32:51.052Z,101962.50
2024-03-07T23:35:18.500Z,101967.16
2024-03-07T23:37:46.141Z,101962.97
2024-03-07T23:40:14.549Z,101958.88
2024-03-07T23:42:42.360Z,101947.34
2024-03-07T23:45:10.521Z,101951.16
2024-03-07T23:47:37.643Z,101954.44
2024-03-07T23:50:05.387Z,101947.00
2024-03-07T23:52:31.876Z,101945.31
2024-03-07T23:54:58.395Z,101940.97
2024-03-07T23:57:25.021Z,101939.13
2024-03-07T23:59:51.565Z,101936.91
